Ticket #3513: java_stream.txt

File java_stream.txt, 10.0 KB (added by rcgroot@…, 10 years ago)

Network sniff of Java code uploading and failing

Line 
1POST /api/0.6/gpx/create HTTP/1.1
2Authorization: Basic cmNncm9vdEBnbWFpbC5jb206cmNncm9vdHB3ZA==
3Content-Length: 9337
4Content-Type: multipart/form-data; boundary=2E6xRXmwOpdFlYJ2JFDz-wwvHvZYqJx
5Host: api06.dev.openstreetmap.org:80
6Connection: Keep-Alive
7User-Agent: Apache-HttpClient/UNAVAILABLE (java 1.4)
8Expect: 100-Continue
9
10HTTP/1.1 100 Continue
11
12--2E6xRXmwOpdFlYJ2JFDz-wwvHvZYqJx
13Content-Disposition: form-data; name="file"; filename="rondjemeer.gpx"
14Content-Type: application/octet-stream
15Content-Transfer-Encoding: binary
16
17<?xml version='1.0' encoding='UTF-8' standalone='yes' ?>
18<gpx version="1.1" creator="nl.sogeti.android.gpstracker" xsi:schemaLocation="http://www.topografix.com/GPX/1/1 http://www.topografix.com/gpx/1/1/gpx.xsd" xmlns="http://www.topografix.com/GPX/1/1" xmlns:xsi="http://www.w3.org/2001/XMLSchema-instance" xmlns:gpx10="http://www.topografix.com/GPX/1/0" xmlns:ogt10="http://gpstracker.android.sogeti.nl/GPX/1/0">
19<metadata>
20<time>2011-02-03T20:20:58Z</time>
21</metadata>
22<trk>
23<name>rondje meer</name>
24<trkseg>
25<trkpt lat="-38.18837666666666" lon="176.32698333333332">
26<ele>0.0</ele>
27<time>2011-02-03T20:21:35Z</time>
28<extensions />
29</trkpt>
30<trkpt lat="-38.18842333333334" lon="176.32688833333336">
31<ele>0.0</ele>
32<time>2011-02-03T20:21:46Z</time>
33<extensions />
34</trkpt>
35<trkpt lat="-38.188509999999994" lon="176.326905">
36<ele>0.0</ele>
37<time>2011-02-03T20:21:55Z</time>
38<extensions />
39</trkpt>
40<trkpt lat="-38.18861666666667" lon="176.32693">
41<ele>0.0</ele>
42<time>2011-02-03T20:22:01Z</time>
43<extensions />
44</trkpt>
45<trkpt lat="-38.188743333333335" lon="176.32695833333335">
46<ele>0.0</ele>
47<time>2011-02-03T20:22:03Z</time>
48<extensions />
49</trkpt>
50<trkpt lat="-38.18886166666667" lon="176.32695166666664">
51<ele>0.0</ele>
52<time>2011-02-03T20:22:05Z</time>
53<extensions />
54</trkpt>
55<trkpt lat="-38.18897166666667" lon="176.32692666666668">
56<ele>0.0</ele>
57<time>2011-02-03T20:22:08Z</time>
58<extensions />
59</trkpt>
60<trkpt lat="-38.189121666666665" lon="176.32688">
61<ele>0.0</ele>
62<time>2011-02-03T20:22:10Z</time>
63<extensions />
64</trkpt>
65<trkpt lat="-38.189265" lon="176.32693166666667">
66<ele>0.0</ele>
67<time>2011-02-03T20:22:12Z</time>
68<extensions />
69</trkpt>
70<trkpt lat="-38.18938" lon="176.3268666666667">
71<ele>0.0</ele>
72<time>2011-02-03T20:22:15Z</time>
73<extensions />
74</trkpt>
75<trkpt lat="-38.189475" lon="176.32688166666668">
76<ele>0.0</ele>
77<time>2011-02-03T20:22:17Z</time>
78<extensions />
79</trkpt>
80<trkpt lat="-38.18957666666667" lon="176.32688166666668">
81<ele>0.0</ele>
82<time>2011-02-03T20:22:18Z</time>
83<extensions />
84</trkpt>
85<trkpt lat="-38.189634999999996" lon="176.32689333333335">
86<ele>0.0</ele>
87<time>2011-02-03T20:22:19Z</time>
88<extensions />
89</trkpt>
90<trkpt lat="-38.189688333333336" lon="176.326915">
91<ele>0.0</ele>
92<time>2011-02-03T20:22:20Z</time>
93<extensions />
94</trkpt>
95<trkpt lat="-38.18983166666667" lon="176.3269166666667">
96<ele>0.0</ele>
97<time>2011-02-03T20:22:22Z</time>
98<extensions />
99</trkpt>
100<trkpt lat="-38.190018333333335" lon="176.32685833333332">
101<ele>0.0</ele>
102<time>2011-02-03T20:22:25Z</time>
103<extensions />
104</trkpt>
105<trkpt lat="-38.19016" lon="176.32683500000002">
106<ele>0.0</ele>
107<time>2011-02-03T20:22:28Z</time>
108<extensions />
109</trkpt>
110<trkpt lat="-38.190235" lon="176.32679833333333">
111<ele>0.0</ele>
112<time>2011-02-03T20:22:30Z</time>
113<extensions />
114</trkpt>
115<trkpt lat="-38.19034166666667" lon="176.32675666666668">
116<ele>0.0</ele>
117<time>2011-02-03T20:22:31Z</time>
118<extensions />
119</trkpt>
120<trkpt lat="-38.19049166666667" lon="176.326625">
121<ele>0.0</ele>
122<time>2011-02-03T20:22:34Z</time>
123<extensions />
124</trkpt>
125<trkpt lat="-38.19058666666667" lon="176.32656666666668">
126<ele>0.0</ele>
127<time>2011-02-03T20:22:36Z</time>
128<extensions />
129</trkpt>
130<trkpt lat="-38.19068166666667" lon="176.32646999999997">
131<ele>0.0</ele>
132<time>2011-02-03T20:22:38Z</time>
133<extensions />
134</trkpt>
135<trkpt lat="-38.19082" lon="176.32638666666668">
136<ele>0.0</ele>
137<time>2011-02-03T20:22:41Z</time>
138<extensions />
139</trkpt>
140<trkpt lat="-38.190981666666666" lon="176.326205">
141<ele>0.0</ele>
142<time>2011-02-03T20:22:45Z</time>
143<extensions />
144</trkpt>
145<trkpt lat="-38.191048333333335" lon="176.32606">
146<ele>0.0</ele>
147<time>2011-02-03T20:22:48Z</time>
148<extensions />
149</trkpt>
150<trkpt lat="-38.191230000000004" lon="176.3257">
151<ele>0.0</ele>
152<time>2011-02-03T20:22:55Z</time>
153<extensions />
154</trkpt>
155<trkpt lat="-38.19134833333333" lon="176.32554666666667">
156<ele>0.0</ele>
157<time>2011-02-03T20:23:00Z</time>
158<extensions />
159</trkpt>
160<trkpt lat="-38.19146166666667" lon="176.32550833333335">
161<ele>0.0</ele>
162<time>2011-02-03T20:23:03Z</time>
163<extensions />
164</trkpt>
165<trkpt lat="-38.19164" lon="176.325435">
166<ele>0.0</ele>
167<time>2011-02-03T20:23:06Z</time>
168<extensions />
169</trkpt>
170<trkpt lat="-38.19179833333333" lon="176.32534666666663">
171<ele>0.0</ele>
172<time>2011-02-03T20:23:09Z</time>
173<extensions />
174</trkpt>
175<trkpt lat="-38.191943333333334" lon="176.32530666666668">
176<ele>0.0</ele>
177<time>2011-02-03T20:23:11Z</time>
178<extensions />
179</trkpt>
180<trkpt lat="-38.192" lon="176.32531666666668">
181<ele>0.0</ele>
182<time>2011-02-03T20:23:12Z</time>
183<extensions />
184</trkpt>
185<trkpt lat="-38.192249999999994" lon="176.32529000000002">
186<ele>0.0</ele>
187<time>2011-02-03T20:23:16Z</time>
188<extensions />
189</trkpt>
190<trkpt lat="-38.192366666666665" lon="176.32531833333334">
191<ele>0.0</ele>
192<time>2011-02-03T20:23:17Z</time>
193<extensions />
194</trkpt>
195<trkpt lat="-38.19259833333333" lon="176.32546166666665">
196<ele>0.0</ele>
197<time>2011-02-03T20:23:21Z</time>
198<extensions />
199</trkpt>
200<trkpt lat="-38.19272" lon="176.325615">
201<ele>0.0</ele>
202<time>2011-02-03T20:23:24Z</time>
203<extensions />
204</trkpt>
205<trkpt lat="-38.19286833333333" lon="176.325795">
206<ele>0.0</ele>
207<time>2011-02-03T20:23:27Z</time>
208<extensions />
209</trkpt>
210<trkpt lat="-38.193020000000004" lon="176.32579666666666">
211<ele>0.0</ele>
212<time>2011-02-03T20:23:30Z</time>
213<extensions />
214</trkpt>
215<trkpt lat="-38.19316666666667" lon="176.32576833333331">
216<ele>0.0</ele>
217<time>2011-02-03T20:23:32Z</time>
218<extensions />
219</trkpt>
220<trkpt lat="-38.19329666666667" lon="176.32571833333333">
221<ele>0.0</ele>
222<time>2011-02-03T20:23:35Z</time>
223<extensions />
224</trkpt>
225<trkpt lat="-38.19343166666667" lon="176.32575666666665">
226<ele>0.0</ele>
227<time>2011-02-03T20:23:38Z</time>
228<extensions />
229</trkpt>
230<trkpt lat="-38.19356666666667" lon="176.32576166666664">
231<ele>0.0</ele>
232<time>2011-02-03T20:23:40Z</time>
233<extensions />
234</trkpt>
235<trkpt lat="-38.19377333333333" lon="176.32591999999997">
236<ele>0.0</ele>
237<time>2011-02-03T20:23:44Z</time>
238<extensions />
239</trkpt>
240<trkpt lat="-38.19412166666667" lon="176.3257716666667">
241<ele>0.0</ele>
242<time>2011-02-03T20:23:51Z</time>
243<extensions />
244</trkpt>
245<trkpt lat="-38.194355" lon="176.32569666666666">
246<ele>0.0</ele>
247<time>2011-02-03T20:23:55Z</time>
248<extensions />
249</trkpt>
250<trkpt lat="-38.194536666666664" lon="176.32573833333336">
251<ele>0.0</ele>
252<time>2011-02-03T20:23:57Z</time>
253<extensions />
254</trkpt>
255<trkpt lat="-38.19462166666666" lon="176.32575666666665">
256<ele>0.0</ele>
257<time>2011-02-03T20:23:59Z</time>
258<extensions />
259</trkpt>
260<trkpt lat="-38.19479666666667" lon="176.32580333333334">
261<ele>0.0</ele>
262<time>2011-02-03T20:24:02Z</time>
263<extensions />
264</trkpt>
265<trkpt lat="-38.19502333333333" lon="176.32594333333333">
266<ele>0.0</ele>
267<time>2011-02-03T20:24:06Z</time>
268<extensions />
269</trkpt>
270<trkpt lat="-38.19511166666667" lon="176.32598833333336">
271<ele>0.0</ele>
272<time>2011-02-03T20:24:09Z</time>
273<extensions />
274</trkpt>
275<trkpt lat="-38.19517666666666" lon="176.3259683333333">
276<ele>0.0</ele>
277<time>2011-02-03T20:24:11Z</time>
278<extensions />
279</trkpt>
280<trkpt lat="-38.19512833333333" lon="176.32587666666666">
281<ele>0.0</ele>
282<time>2011-02-03T20:24:17Z</time>
283<extensions />
284</trkpt>
285<trkpt lat="-38.195100000000004" lon="176.32566666666668">
286<ele>0.0</ele>
287<time>2011-02-03T20:24:22Z</time>
288<extensions />
289</trkpt>
290<trkpt lat="-38.19524" lon="176.32527166666665">
291<ele>0.0</ele>
292<time>2011-02-03T20:24:29Z</time>
293<extensions />
294</trkpt>
295<trkpt lat="-38.195481666666666" lon="176.32495">
296<ele>0.0</ele>
297<time>2011-02-03T20:24:36Z</time>
298<extensions />
299</trkpt>
300<trkpt lat="-38.195636666666665" lon="176.32463833333333">
301<ele>0.0</ele>
302<time>2011-02-03T20:24:41Z</time>
303<extensions />
304</trkpt>
305<trkpt lat="-38.195751666666666" lon="176.32451666666668">
306<ele>0.0</ele>
307<time>2011-02-03T20:24:45Z</time>
308<extensions />
309</trkpt>
310<trkpt lat="-38.195863333333335" lon="176.3244533333333">
311<ele>0.0</ele>
312<time>2011-02-03T20:24:47Z</time>
313<extensions />
314</trkpt>
315<trkpt lat="-38.19600166666667" lon="176.3243316666667">
316<ele>0.0</ele>
317<time>2011-02-03T20:24:50Z</time>
318<extensions />
319</trkpt>
320<trkpt lat="-38.19613666666667" lon="176.32416">
321<ele>0.0</ele>
322<time>2011-02-03T20:24:54Z</time>
323<extensions />
324</trkpt>
325<trkpt lat="-38.196286666666666" lon="176.32411833333336">
326<ele>0.0</ele>
327<time>2011-02-03T20:24:58Z</time>
328<extensions />
329</trkpt>
330<trkpt lat="-38.19651666666667" lon="176.32419000000002">
331<ele>0.0</ele>
332<time>2011-02-03T20:25:04Z</time>
333<extensions />
334</trkpt>
335<trkpt lat="-38.19656166666667" lon="176.32427">
336<ele>0.0</ele>
337<time>2011-02-03T20:25:06Z</time>
338<extensions />
339</trkpt>
340</trkseg>
341</trk>
342</gpx>
343--2E6xRXmwOpdFlYJ2JFDz-wwvHvZYqJx
344Content-Disposition: form-data; name="description"
345Content-Type: text/plain; charset=US-ASCII
346Content-Transfer-Encoding: 8bit
347
348rondje meer
349--2E6xRXmwOpdFlYJ2JFDz-wwvHvZYqJx
350Content-Disposition: form-data; name="tags"
351Content-Type: text/plain; charset=US-ASCII
352Content-Transfer-Encoding: 8bit
353
354fishing,sight
355--2E6xRXmwOpdFlYJ2JFDz-wwvHvZYqJx
356Content-Disposition: form-data; name="visibility"
357Content-Type: text/plain; charset=US-ASCII
358Content-Transfer-Encoding: 8bit
359
360trackable
361--2E6xRXmwOpdFlYJ2JFDz-wwvHvZYqJx--
362HTTP/1.1 500 Internal Server Error
363Date: Sat, 05 Feb 2011 16:09:18 GMT
364Server: Apache/2.2.14 (Ubuntu)
365X-Powered-By: Phusion Passenger (mod_rails/mod_rack) 3.0.1
366Vary: Accept-Language
367Content-Language: en
368X-Runtime: 658
369Cache-Control: no-cache
370Error: NoMethodError: private method `split' called for #<File:/tmp/RackMultipart20110205-28760-sxgghn-0>
371Set-Cookie: _osm_session=326745db6d2c067956d7d63065f20770; path=/; HttpOnly
372Content-Length: 98
373Status: 500
374Connection: close
375Content-Type: text/html; charset=utf-8
376
377NoMethodError: private method `split' called for #<File:/tmp/RackMultipart20110205-28760-sxgghn-0>